Airfield :
LOGIN :

Register | Disclaimer

   EN    FR    IT 

 










Legend :    VFR   Marginal VFR   IFR   Intensive IFR   Very Intensive IFR
Visi :
Ceiling :
>= 8 km
>= 3000ft
5 to 8 km
1000 to 3000 ft
1500m to 5 km
500 to 1000 ft
800 to 1500m
200 to 500 ft
< 800m
< 200 ft
Symbols :   Thunderstorms  Fog  Heavy snow  Heavy precipitations  Wind > 20 kt
SIGMETs :     Misc.  Thunderstorms  Icing  Turbulence  Mountain Waves  Volcanic Ashes







- Airport Elevation : 1276 ft
- IATA code : STR


EDDS - Stuttgart

CURRENT METAR :
  • 222150Z 25003KT 180V300 CAVOK 17/08 Q1015

EXPIRED METARs :
  • 222120Z VRB01KT CAVOK 18/08 Q1015
  • 222050Z VRB02KT CAVOK 19/08 Q1015
  • 222020Z VRB02KT CAVOK 19/08 Q1014
  • 221950Z 28004KT CAVOK 20/07 Q1014 NOSIG
  • 221920Z 30005KT CAVOK 21/07 Q1014 NOSIG

TAF TAF EDDS
Valid from the 22 at 18:00 until the 23 at 18:00 UTC


221700Z 2218/2318 VRB03KT CAVOK
BECMG 2308/2310 25010KT
TEMPO 2309/2317 4500 SHRA BKN030TCU
PROB40
TEMPO 2310/2315 25015G25KT 2500 TSRA BKN010 BKN020CB
No reported NOTAMs for that airfield.



MET'MAP, your aeronautical weather chart ! - Copyright ORBIFLY December 2007 - Disclaimer

ORBIFLY MET'MAP TEAM :

Programming & Development : Alexandra Zaïnal
Concept & Development : Baudouin d'Aumeries
Co-Development & Prog : Marc-Olivier Méhu
Technical & hardware support : Manuel Goepfert

Contact : metmap@orbifly.com




SOURCES & CREDITS :

   NOAA